Time;durP1;ratioP1;P1;durP2;ratioP2;P2;SDS_P1;SDS_P2;PMS_P1;PMS_P2;Temp;Humidity;BMP_temperature;BMP_pressure;BME280_temperature;BME280_humidity;BME280_pressure;Samples;Min_cycle;Max_cycle;Signal;HPM_P1;HPM_P2
2022/12/11 00:00:10;;;;;;;;;;;11.50;79.90;;;;;;5039342;28;93047;-40
2022/12/11 00:02:36;;;;;;;;;;;11.50;79.90;;;;;;5040342;28;91457;-40
2022/12/11 00:05:02;;;;;;;;;;;11.50;79.90;;;;;;5042208;28;92072;-41
2022/12/11 00:07:27;;;;;;;;;;;11.50;79.90;;;;;;5039778;28;92164;-41
2022/12/11 00:09:52;;;;;;;;;;;11.50;79.90;;;;;;5039223;28;93094;-40
2022/12/11 00:12:18;;;;;;;;;;;11.50;80.00;;;;;;5039191;28;92706;-40
2022/12/11 00:14:43;;;;;;;;;;;11.50;79.90;;;;;;5039566;28;92105;-41
2022/12/11 00:17:09;;;;;;;;;;;11.50;80.40;;;;;;5039790;28;92621;-41
2022/12/11 00:19:34;;;;;;;;;;;11.60;80.50;;;;;;5039004;28;92507;-41
2022/12/11 00:22:00;;;;;;;;;;;11.50;80.20;;;;;;5039616;28;92201;-41
2022/12/11 00:24:26;;;;;;;;;;;11.50;80.20;;;;;;5039489;28;92350;-41
2022/12/11 00:26:51;;;;;;;;;;;11.60;80.30;;;;;;5042580;28;92375;-41
2022/12/11 00:29:17;;;;;;;;;;;11.50;80.20;;;;;;5039119;27;92967;-41
2022/12/11 00:31:43;;;;;;;;;;;11.60;80.40;;;;;;5039018;28;93354;-40
2022/12/11 00:34:08;;;;;;;;;;;11.50;80.20;;;;;;5038760;28;93162;-40
2022/12/11 00:36:34;;;;;;;;;;;11.50;80.10;;;;;;5039002;27;93299;-41
2022/12/11 00:39:00;;;;;;;;;;;11.50;80.20;;;;;;5038531;28;93313;-40
2022/12/11 00:41:25;;;;;;;;;;;11.50;80.30;;;;;;5039203;28;92135;-40
2022/12/11 00:43:51;;;;;;;;;;;11.50;80.20;;;;;;5039241;28;92109;-40
2022/12/11 00:46:17;;;;;;;;;;;11.50;80.20;;;;;;5038608;28;92937;-40
2022/12/11 00:48:42;;;;;;;;;;;11.50;80.20;;;;;;5042456;28;92161;-40
2022/12/11 00:51:08;;;;;;;;;;;11.50;80.20;;;;;;5038940;28;91910;-40
2022/12/11 00:53:34;;;;;;;;;;;11.50;80.20;;;;;;5039214;28;92600;-40
2022/12/11 00:55:59;;;;;;;;;;;11.50;80.30;;;;;;5039203;27;93371;-40
2022/12/11 00:58:25;;;;;;;;;;;11.60;80.30;;;;;;5037670;28;93954;-40
2022/12/11 01:00:50;;;;;;;;;;;11.60;80.30;;;;;;5038990;28;92172;-40
2022/12/11 01:03:16;;;;;;;;;;;11.50;80.30;;;;;;5039077;28;92058;-40
2022/12/11 01:05:49;;;;;;;;;;;11.50;80.30;;;;;;5038331;28;92532;-40
2022/12/11 01:08:15;;;;;;;;;;;11.50;80.80;;;;;;5041316;27;92386;-40
2022/12/11 01:10:40;;;;;;;;;;;11.60;80.20;;;;;;5045290;28;92557;-40
2022/12/11 01:13:06;;;;;;;;;;;11.60;80.30;;;;;;5042496;28;92061;-40
2022/12/11 01:15:33;;;;;;;;;;;11.60;80.40;;;;;;5042925;27;92210;-40
2022/12/11 01:17:58;;;;;;;;;;;11.60;80.40;;;;;;5041845;28;92363;-40
2022/12/11 01:20:24;;;;;;;;;;;11.60;81.10;;;;;;5042244;28;92159;-41
2022/12/11 01:22:54;;;;;;;;;;;11.60;80.80;;;;;;5041654;27;94711;-40
2022/12/11 01:25:19;;;;;;;;;;;11.60;80.70;;;;;;5041723;28;93102;-41
2022/12/11 01:27:45;;;;;;;;;;;11.50;80.60;;;;;;5042222;28;92131;-41
2022/12/11 01:30:11;;;;;;;;;;;11.50;80.80;;;;;;5044744;28;92444;-41
2022/12/11 01:32:37;;;;;;;;;;;11.50;80.80;;;;;;5042241;28;92197;-41
2022/12/11 01:35:04;;;;;;;;;;;11.60;80.90;;;;;;5041982;27;92343;-40
2022/12/11 01:37:29;;;;;;;;;;;11.60;80.90;;;;;;5041419;28;92152;-40
2022/12/11 01:39:55;;;;;;;;;;;11.60;80.90;;;;;;5042460;28;91505;-41
2022/12/11 01:42:21;;;;;;;;;;;11.60;80.90;;;;;;5041942;27;92186;-40
2022/12/11 01:44:46;;;;;;;;;;;11.50;80.90;;;;;;5041292;28;92902;-41
2022/12/11 01:47:12;;;;;;;;;;;11.50;80.90;;;;;;5041240;28;92946;-40
2022/12/11 01:49:39;;;;;;;;;;;11.50;80.90;;;;;;5041723;28;93392;-41
2022/12/11 01:52:17;;;;;;;;;;;11.60;81.00;;;;;;5044257;28;93161;-40
2022/12/11 01:54:43;;;;;;;;;;;11.60;81.00;;;;;;5041900;27;92351;-41
2022/12/11 01:57:09;;;;;;;;;;;11.50;81.00;;;;;;5041178;28;93011;-41
2022/12/11 01:59:36;;;;;;;;;;;11.50;81.00;;;;;;5041468;28;92378;-41
2022/12/11 02:02:31;;;;;;;;;;;11.60;81.00;;;;;;5041737;27;92101;-40
2022/12/11 02:04:56;;;;;;;;;;;11.50;81.00;;;;;;5031743;28;92568;-40
2022/12/11 02:07:22;;;;;;;;;;;11.60;81.00;;;;;;5041391;28;92124;-40
2022/12/11 02:09:48;;;;;;;;;;;11.60;81.10;;;;;;5041782;28;92802;-40
2022/12/11 02:12:30;;;;;;;;;;;11.60;81.00;;;;;;5040323;28;94125;-40
2022/12/11 02:15:05;;;;;;;;;;;11.60;81.00;;;;;;5044673;28;91915;-41
2022/12/11 02:17:37;;;;;;;;;;;11.60;81.20;;;;;;5041052;27;93205;-40
2022/12/11 02:20:06;;;;;;;;;;;11.60;81.00;;;;;;5040978;28;92131;-40
2022/12/11 02:22:32;;;;;;;;;;;11.60;81.00;;;;;;5041213;28;92622;-41
2022/12/11 02:25:19;;;;;;;;;;;11.60;80.90;;;;;;5040839;28;93528;-40
2022/12/11 02:27:48;;;;;;;;;;;11.60;81.20;;;;;;5041426;28;92014;-40
2022/12/11 02:30:14;;;;;;;;;;;11.60;81.10;;;;;;5041634;27;92349;-40
2022/12/11 02:33:06;;;;;;;;;;;11.60;81.30;;;;;;5040552;28;94508;-40
2022/12/11 02:35:33;;;;;;;;;;;11.50;81.00;;;;;;5038865;28;92074;-40
2022/12/11 02:38:04;;;;;;;;;;;11.60;80.90;;;;;;5042734;27;93595;-41
2022/12/11 02:40:31;;;;;;;;;;;11.60;81.00;;;;;;5040777;28;92288;-41
2022/12/11 02:42:59;;;;;;;;;;;11.60;81.00;;;;;;5041222;27;92214;-41
2022/12/11 02:45:25;;;;;;;;;;;11.60;81.00;;;;;;5039827;28;92826;-40
2022/12/11 02:47:51;;;;;;;;;;;11.60;81.00;;;;;;5041170;28;92142;-40
2022/12/11 02:50:18;;;;;;;;;;;11.60;80.90;;;;;;5040820;27;92649;-40
2022/12/11 02:52:45;;;;;;;;;;;11.60;80.90;;;;;;5040214;28;93944;-40
2022/12/11 02:55:13;;;;;;;;;;;11.60;80.90;;;;;;5041228;28;91419;-40
2022/12/11 02:57:42;;;;;;;;;;;11.60;81.20;;;;;;5040736;28;92146;-40
2022/12/11 03:00:08;;;;;;;;;;;11.60;81.10;;;;;;5043268;28;93083;-40
2022/12/11 03:02:33;;;;;;;;;;;11.50;80.80;;;;;;5039967;27;92885;-40
2022/12/11 03:04:59;;;;;;;;;;;11.50;81.00;;;;;;5040096;28;93164;-40
2022/12/11 03:07:26;;;;;;;;;;;11.60;81.60;;;;;;5040941;28;92149;-40
2022/12/11 03:09:52;;;;;;;;;;;11.60;81.40;;;;;;5040643;28;92519;-40
2022/12/11 03:12:20;;;;;;;;;;;11.50;81.00;;;;;;5040183;28;93029;-41
2022/12/11 03:14:47;;;;;;;;;;;11.60;81.00;;;;;;5040436;28;92246;-40
2022/12/11 03:17:15;;;;;;;;;;;11.60;80.90;;;;;;5040362;27;92857;-40
2022/12/11 03:19:47;;;;;;;;;;;11.50;81.00;;;;;;5040297;28;92352;-40
2022/12/11 03:22:19;;;;;;;;;;;11.60;81.30;;;;;;5043700;28;92253;-41
2022/12/11 03:24:59;;;;;;;;;;;11.50;81.00;;;;;;5039578;28;94355;-40
2022/12/11 03:27:34;;;;;;;;;;;11.60;81.30;;;;;;5039890;28;92791;-40
2022/12/11 03:30:03;;;;;;;;;;;11.60;81.20;;;;;;5039352;27;93437;-40
2022/12/11 03:32:33;;;;;;;;;;;11.60;81.00;;;;;;5039498;28;92779;-40
2022/12/11 03:35:04;;;;;;;;;;;11.60;80.90;;;;;;5040252;28;92516;-40
2022/12/11 03:37:31;;;;;;;;;;;11.60;80.90;;;;;;5040048;28;92039;-40
2022/12/11 03:40:00;;;;;;;;;;;11.60;80.90;;;;;;5039376;28;93032;-40
2022/12/11 03:42:25;;;;;;;;;;;11.60;81.10;;;;;;5043065;28;92084;-40
2022/12/11 03:44:53;;;;;;;;;;;11.60;80.90;;;;;;5039700;28;92444;-40
2022/12/11 03:47:21;;;;;;;;;;;11.50;80.80;;;;;;5040224;28;92103;-40
2022/12/11 03:49:47;;;;;;;;;;;11.60;80.90;;;;;;5039904;28;92472;-41
2022/12/11 03:52:13;;;;;;;;;;;11.50;81.00;;;;;;5038818;28;94085;-40
2022/12/11 03:54:39;;;;;;;;;;;11.60;80.90;;;;;;5039982;28;92175;-41
2022/12/11 03:57:06;;;;;;;;;;;11.50;80.80;;;;;;5039691;28;92416;-40
2022/12/11 03:59:32;;;;;;;;;;;11.60;80.90;;;;;;5039407;28;93192;-41
2022/12/11 04:01:57;;;;;;;;;;;11.50;80.90;;;;;;5040002;28;92209;-40
2022/12/11 04:04:23;;;;;;;;;;;11.60;81.00;;;;;;5042502;28;92393;-40
2022/12/11 04:06:48;;;;;;;;;;;11.60;80.90;;;;;;5039851;28;92084;-40
2022/12/11 04:09:14;;;;;;;;;;;11.60;80.90;;;;;;5040264;28;92373;-40
2022/12/11 04:11:41;;;;;;;;;;;11.60;80.90;;;;;;5039323;28;93089;-40
2022/12/11 04:16:55;;;;;;;;;;;11.60;80.90;;;;;;5039234;28;92839;-40
2022/12/11 04:24:49;;;;;;;;;;;11.60;81.00;;;;;;5039706;28;92124;-40
2022/12/11 04:27:47;;;;;;;;;;;11.60;80.90;;;;;;5042133;28;93026;-41
2022/12/11 04:30:01;;;;;;;;;;;11.60;80.90;;;;;;5039112;28;93413;-40
2022/12/11 04:32:27;;;;;;;;;;;11.60;80.90;;;;;;5038873;28;93398;-40
2022/12/11 04:34:52;;;;;;;;;;;11.60;80.90;;;;;;5039501;28;91486;-40
2022/12/11 04:37:18;;;;;;;;;;;11.60;81.10;;;;;;5039432;28;92244;-40
2022/12/11 04:39:43;;;;;;;;;;;11.60;81.00;;;;;;5038588;28;93191;-41
2022/12/11 04:42:09;;;;;;;;;;;11.60;81.00;;;;;;5038564;28;93086;-41
2022/12/11 04:44:34;;;;;;;;;;;11.60;80.90;;;;;;5039368;28;93539;-40
2022/12/11 04:47:00;;;;;;;;;;;11.60;81.10;;;;;;5038473;28;93206;-40
2022/12/11 04:49:25;;;;;;;;;;;11.50;80.80;;;;;;5042479;28;92256;-40
2022/12/11 04:51:51;;;;;;;;;;;11.60;80.90;;;;;;5038696;28;93237;-40
2022/12/11 04:54:16;;;;;;;;;;;11.60;81.00;;;;;;5039197;28;92099;-40
2022/12/11 04:56:42;;;;;;;;;;;11.60;81.00;;;;;;5039015;28;91963;-40
2022/12/11 04:59:07;;;;;;;;;;;11.60;80.90;;;;;;5038925;28;92310;-40
2022/12/11 05:01:33;;;;;;;;;;;11.60;80.90;;;;;;5039113;28;92170;-40
2022/12/11 05:03:59;;;;;;;;;;;11.60;81.00;;;;;;5039109;28;92463;-40
2022/12/11 05:06:24;;;;;;;;;;;11.60;80.90;;;;;;5037845;28;94237;-41
2022/12/11 05:08:50;;;;;;;;;;;11.60;81.00;;;;;;5039114;28;92143;-40
2022/12/11 05:11:16;;;;;;;;;;;11.60;81.10;;;;;;5041824;27;92998;-40
2022/12/11 05:13:42;;;;;;;;;;;11.60;81.10;;;;;;5038785;28;92198;-40
2022/12/11 05:16:08;;;;;;;;;;;11.60;80.90;;;;;;5038948;27;92304;-40
2022/12/11 05:18:34;;;;;;;;;;;11.60;80.90;;;;;;5038171;28;93186;-40
2022/12/11 05:21:01;;;;;;;;;;;11.60;80.90;;;;;;5038882;28;92156;-41
2022/12/11 05:23:27;;;;;;;;;;;11.60;81.10;;;;;;5039387;27;92452;-40
2022/12/11 05:25:56;;;;;;;;;;;11.60;80.90;;;;;;5038220;28;93089;-41
2022/12/11 05:28:23;;;;;;;;;;;11.60;80.80;;;;;;5038927;28;93123;-40
2022/12/11 05:30:53;;;;;;;;;;;11.60;80.90;;;;;;5037883;28;93265;-40
2022/12/11 05:33:19;;;;;;;;;;;11.60;80.90;;;;;;5041080;28;92904;-40
2022/12/11 05:35:45;;;;;;;;;;;11.60;80.90;;;;;;5038383;28;93145;-40
2022/12/11 05:38:11;;;;;;;;;;;11.60;80.80;;;;;;5037896;28;93171;-40
2022/12/11 05:40:37;;;;;;;;;;;11.60;80.90;;;;;;5038492;28;93850;-40
2022/12/11 05:43:02;;;;;;;;;;;11.50;80.70;;;;;;5038418;27;93575;-40
2022/12/11 05:45:27;;;;;;;;;;;11.60;80.90;;;;;;5036290;28;96547;-41
2022/12/11 05:47:53;;;;;;;;;;;11.60;80.90;;;;;;5038570;28;91526;-40
2022/12/11 05:50:19;;;;;;;;;;;11.60;80.90;;;;;;5038483;28;92072;-40
2022/12/11 05:52:44;;;;;;;;;;;11.60;80.90;;;;;;5041019;27;93136;-40
2022/12/11 05:55:09;;;;;;;;;;;11.60;80.90;;;;;;5041202;28;93086;-41
2022/12/11 05:57:35;;;;;;;;;;;11.60;80.90;;;;;;5041209;28;93162;-40
2022/12/11 06:00:00;;;;;;;;;;;11.50;80.90;;;;;;5041967;28;92267;-40
2022/12/11 06:02:26;;;;;;;;;;;11.60;81.00;;;;;;5041670;28;92640;-40
2022/12/11 06:04:51;;;;;;;;;;;11.60;81.00;;;;;;5040915;28;94734;-41
2022/12/11 06:07:17;;;;;;;;;;;11.60;80.90;;;;;;5041355;28;91919;-40
2022/12/11 06:09:42;;;;;;;;;;;11.60;81.00;;;;;;5041604;28;92525;-40
2022/12/11 06:12:08;;;;;;;;;;;11.60;80.90;;;;;;5041554;28;92277;-40
2022/12/11 06:14:33;;;;;;;;;;;11.60;80.90;;;;;;5044839;28;92153;-40
2022/12/11 06:17:00;;;;;;;;;;;11.60;80.90;;;;;;5040934;28;93139;-40
2022/12/11 06:19:25;;;;;;;;;;;11.60;80.90;;;;;;5040508;28;94394;-40
2022/12/11 06:21:51;;;;;;;;;;;11.60;81.10;;;;;;5041499;28;92511;-40
2022/12/11 06:24:17;;;;;;;;;;;11.60;80.90;;;;;;5040651;28;92991;-40
2022/12/11 06:26:42;;;;;;;;;;;11.60;81.10;;;;;;5041149;28;92128;-40
2022/12/11 06:29:08;;;;;;;;;;;11.60;80.90;;;;;;5041482;28;92520;-41
2022/12/11 06:31:33;;;;;;;;;;;11.60;81.10;;;;;;5040872;28;93075;-41
2022/12/11 06:33:59;;;;;;;;;;;11.60;81.10;;;;;;5040972;28;92140;-40
2022/12/11 06:36:24;;;;;;;;;;;11.60;81.30;;;;;;5044274;28;92465;-40
2022/12/11 06:38:50;;;;;;;;;;;11.60;81.20;;;;;;5040886;28;92196;-40
2022/12/11 06:41:16;;;;;;;;;;;11.60;81.10;;;;;;5041200;27;92485;-40
2022/12/11 06:43:42;;;;;;;;;;;11.60;81.10;;;;;;5039868;28;94140;-40
2022/12/11 06:46:08;;;;;;;;;;;11.60;81.10;;;;;;5040699;28;92106;-40
2022/12/11 06:48:34;;;;;;;;;;;11.60;81.30;;;;;;5040901;27;92402;-41
2022/12/11 06:51:03;;;;;;;;;;;11.60;81.20;;;;;;5040251;28;94193;-40
2022/12/11 06:53:29;;;;;;;;;;;11.60;81.20;;;;;;5040842;28;92127;-40
2022/12/11 06:55:55;;;;;;;;;;;11.60;81.60;;;;;;5041119;28;92079;-40
2022/12/11 06:58:20;;;;;;;;;;;11.60;81.20;;;;;;5043335;28;92919;-40
2022/12/11 07:00:46;;;;;;;;;;;11.60;81.20;;;;;;5041262;28;92028;-40
2022/12/11 07:03:12;;;;;;;;;;;11.60;81.00;;;;;;5040222;28;93069;-40
2022/12/11 07:05:38;;;;;;;;;;;11.70;80.90;;;;;;5039426;27;92140;-40
2022/12/11 07:08:03;;;;;;;;;;;11.70;80.90;;;;;;5040263;28;92978;-40
2022/12/11 07:10:29;;;;;;;;;;;11.70;81.10;;;;;;5040226;28;93065;-40
2022/12/11 07:12:54;;;;;;;;;;;11.70;80.90;;;;;;5040826;28;91903;-40
2022/12/11 07:15:20;;;;;;;;;;;11.70;80.90;;;;;;5040634;28;92407;-40
2022/12/11 07:17:45;;;;;;;;;;;11.70;81.00;;;;;;5039855;28;93015;-41
2022/12/11 07:20:11;;;;;;;;;;;11.70;80.90;;;;;;5043386;28;92170;-40
2022/12/11 07:22:36;;;;;;;;;;;11.70;81.00;;;;;;5039985;28;92213;-40
2022/12/11 07:25:02;;;;;;;;;;;11.70;80.90;;;;;;5040634;28;91423;-40
2022/12/11 07:27:28;;;;;;;;;;;11.70;80.90;;;;;;5040715;27;92433;-41
2022/12/11 07:29:54;;;;;;;;;;;11.70;80.80;;;;;;5039967;28;93830;-40
2022/12/11 07:32:20;;;;;;;;;;;11.70;80.90;;;;;;5039389;28;93098;-41
2022/12/11 07:34:47;;;;;;;;;;;11.70;80.90;;;;;;5040126;27;93392;-40
2022/12/11 07:37:12;;;;;;;;;;;11.70;80.90;;;;;;5039630;28;93231;-40
2022/12/11 07:39:38;;;;;;;;;;;11.70;80.90;;;;;;5040109;28;92146;-40
2022/12/11 07:42:03;;;;;;;;;;;11.70;81.00;;;;;;5042960;28;92403;-40
2022/12/11 07:44:29;;;;;;;;;;;11.70;80.90;;;;;;5040155;28;92185;-40
2022/12/11 07:46:55;;;;;;;;;;;11.70;80.90;;;;;;5039951;28;92420;-40
2022/12/11 07:49:20;;;;;;;;;;;11.70;81.00;;;;;;5039851;28;92202;-40
2022/12/11 07:51:46;;;;;;;;;;;11.80;81.00;;;;;;5039957;28;92228;-40
2022/12/11 07:54:15;;;;;;;;;;;11.80;81.00;;;;;;5040032;28;92473;-40
2022/12/11 07:56:44;;;;;;;;;;;11.70;80.90;;;;;;5038758;28;93383;-40
2022/12/11 07:59:10;;;;;;;;;;;11.80;80.90;;;;;;5039615;28;92155;-40
2022/12/11 08:01:36;;;;;;;;;;;11.80;81.00;;;;;;5042467;28;92440;-40
2022/12/11 08:04:02;;;;;;;;;;;11.80;81.10;;;;;;5039540;28;92447;-40
2022/12/11 08:06:32;;;;;;;;;;;11.80;81.10;;;;;;5039765;28;92576;-40
2022/12/11 08:08:59;;;;;;;;;;;11.80;81.00;;;;;;5039056;28;93086;-40
2022/12/11 08:11:25;;;;;;;;;;;11.80;81.00;;;;;;5039782;28;92439;-40
2022/12/11 08:13:50;;;;;;;;;;;11.80;80.50;;;;;;5040199;28;92777;-40
2022/12/11 08:16:16;;;;;;;;;;;11.80;81.10;;;;;;5038850;28;92876;-40
2022/12/11 08:18:42;;;;;;;;;;;11.80;81.10;;;;;;5039582;28;92265;-40
2022/12/11 08:21:08;;;;;;;;;;;11.70;81.20;;;;;;5038836;27;93003;-41
2022/12/11 08:23:34;;;;;;;;;;;11.70;81.20;;;;;;5042225;28;93046;-40
2022/12/11 08:26:06;;;;;;;;;;;11.80;81.20;;;;;;5039460;28;92321;-41
2022/12/11 08:28:32;;;;;;;;;;;11.80;81.20;;;;;;5039074;28;93019;-40
2022/12/11 08:30:58;;;;;;;;;;;11.80;81.00;;;;;;5039218;28;92050;-40
2022/12/11 08:33:24;;;;;;;;;;;11.80;81.00;;;;;;5039489;27;92328;-40
2022/12/11 08:35:49;;;;;;;;;;;11.80;81.20;;;;;;5038992;28;93157;-40
2022/12/11 08:38:15;;;;;;;;;;;11.80;81.30;;;;;;5039824;28;91447;-40
2022/12/11 08:40:40;;;;;;;;;;;11.80;81.30;;;;;;5039434;28;91894;-40
2022/12/11 08:43:06;;;;;;;;;;;11.80;81.30;;;;;;5038811;28;94028;-40
2022/12/11 08:45:31;;;;;;;;;;;11.90;81.30;;;;;;5040998;28;93059;-40
2022/12/11 08:47:57;;;;;;;;;;;11.80;81.10;;;;;;5038439;28;93849;-40
2022/12/11 08:50:22;;;;;;;;;;;11.90;81.20;;;;;;5039270;28;92288;-40
2022/12/11 08:52:48;;;;;;;;;;;11.90;81.10;;;;;;5039251;28;92466;-40
2022/12/11 08:55:13;;;;;;;;;;;11.90;81.20;;;;;;5038328;28;94446;-40
2022/12/11 08:57:39;;;;;;;;;;;11.90;81.00;;;;;;5038945;28;92096;-40
2022/12/11 09:00:06;;;;;;;;;;;11.90;81.00;;;;;;5039018;27;92941;-40
2022/12/11 09:02:31;;;;;;;;;;;11.90;81.10;;;;;;5038652;28;92375;-40
2022/12/11 09:04:57;;;;;;;;;;;11.90;81.00;;;;;;5039344;28;91992;-40
2022/12/11 09:07:23;;;;;;;;;;;11.90;81.00;;;;;;5041865;28;92401;-40
2022/12/11 09:09:48;;;;;;;;;;;11.90;81.00;;;;;;5038450;28;93134;-40
2022/12/11 09:12:14;;;;;;;;;;;11.90;81.20;;;;;;5039153;28;92537;-40
2022/12/11 09:14:39;;;;;;;;;;;12.00;81.10;;;;;;5038571;28;93169;-40
2022/12/11 09:17:05;;;;;;;;;;;11.90;81.00;;;;;;5038765;28;92019;-40
2022/12/11 09:19:30;;;;;;;;;;;11.90;81.00;;;;;;5038750;27;92436;-40
2022/12/11 09:21:56;;;;;;;;;;;11.90;81.00;;;;;;5038550;28;93196;-40
2022/12/11 09:24:21;;;;;;;;;;;11.90;81.00;;;;;;5038803;28;92186;-40
2022/12/11 09:26:47;;;;;;;;;;;11.90;81.10;;;;;;5039250;28;92331;-41
2022/12/11 09:29:12;;;;;;;;;;;12.00;81.30;;;;;;5043209;27;93691;-40
2022/12/11 09:31:38;;;;;;;;;;;11.90;81.00;;;;;;5041947;28;92370;-40
2022/12/11 09:34:05;;;;;;;;;;;12.00;81.30;;;;;;5040809;28;93604;-40
2022/12/11 09:36:32;;;;;;;;;;;11.90;81.30;;;;;;5042146;28;92278;-40
2022/12/11 09:39:01;;;;;;;;;;;12.00;81.30;;;;;;5042110;27;92475;-40
2022/12/11 09:41:39;;;;;;;;;;;12.00;81.40;;;;;;5041412;28;93033;-40
2022/12/11 09:44:16;;;;;;;;;;;12.00;81.40;;;;;;5041820;28;92164;-40
2022/12/11 09:46:42;;;;;;;;;;;12.00;81.20;;;;;;5041599;27;93965;-40
2022/12/11 09:49:34;;;;;;;;;;;12.00;81.10;;;;;;5041636;28;93211;-40
2022/12/11 09:52:09;;;;;;;;;;;12.00;81.40;;;;;;5043112;28;91558;-40
2022/12/11 09:54:35;;;;;;;;;;;12.00;81.30;;;;;;5040906;28;94495;-40
2022/12/11 09:57:19;;;;;;;;;;;12.00;81.10;;;;;;5041852;28;92151;-40
2022/12/11 10:00:10;;;;;;;;;;;12.00;81.20;;;;;;5041401;28;93281;-40
2022/12/11 10:02:53;;;;;;;;;;;12.00;81.30;;;;;;5041142;28;94335;-40
2022/12/11 10:05:25;;;;;;;;;;;12.00;81.30;;;;;;5041354;28;92078;-40
2022/12/11 10:07:53;;;;;;;;;;;12.00;81.40;;;;;;5041684;27;92893;-40
2022/12/11 10:10:24;;;;;;;;;;;12.00;81.40;;;;;;5041071;28;93261;-40
2022/12/11 10:13:16;;;;;;;;;;;12.00;81.50;;;;;;5044784;28;92144;-40
2022/12/11 10:15:50;;;;;;;;;;;11.90;81.40;;;;;;5038532;28;93054;-40
2022/12/11 10:18:20;;;;;;;;;;;12.00;81.60;;;;;;5042103;28;91337;-40
2022/12/11 10:20:46;;;;;;;;;;;12.00;81.50;;;;;;5041381;27;93046;-40
2022/12/11 10:23:16;;;;;;;;;;;12.00;81.60;;;;;;5040631;28;94606;-40
2022/12/11 10:25:48;;;;;;;;;;;12.00;81.70;;;;;;5040620;28;93185;-40
2022/12/11 10:28:15;;;;;;;;;;;12.00;81.70;;;;;;5041041;27;94014;-40
2022/12/11 10:30:55;;;;;;;;;;;12.00;81.80;;;;;;5040030;28;92851;-41
2022/12/11 10:33:22;;;;;;;;;;;11.90;83.80;;;;;;5041451;28;92518;-41
2022/12/11 10:35:52;;;;;;;;;;;11.80;85.80;;;;;;5043888;28;92314;-39
2022/12/11 10:38:20;;;;;;;;;;;11.70;86.40;;;;;;5041359;28;92512;-40
2022/12/11 10:40:48;;;;;;;;;;;11.70;87.10;;;;;;5040484;27;92229;-42
2022/12/11 10:43:14;;;;;;;;;;;11.70;86.90;;;;;;5040553;28;92560;-40
2022/12/11 10:45:48;;;;;;;;;;;11.80;86.70;;;;;;5040540;28;92250;-40
2022/12/11 10:48:14;;;;;;;;;;;11.80;85.50;;;;;;5040814;27;92559;-40
2022/12/11 10:50:40;;;;;;;;;;;11.70;85.30;;;;;;5039933;28;94053;-40
2022/12/11 10:53:05;;;;;;;;;;;11.80;84.60;;;;;;5040455;28;92427;-40
2022/12/11 10:55:42;;;;;;;;;;;11.80;84.70;;;;;;5040578;28;93998;-40
2022/12/11 10:58:13;;;;;;;;;;;12.00;84.10;;;;;;5043327;28;92406;-40
2022/12/11 11:00:39;;;;;;;;;;;12.00;83.60;;;;;;5040909;27;92375;-40
2022/12/11 11:03:17;;;;;;;;;;;12.10;83.50;;;;;;5039994;28;94394;-40
2022/12/11 11:05:43;;;;;;;;;;;12.10;83.20;;;;;;5040888;28;93143;-40
2022/12/11 11:08:18;;;;;;;;;;;12.10;83.00;;;;;;5041234;28;92454;-40
2022/12/11 11:10:56;;;;;;;;;;;12.10;82.80;;;;;;5039865;28;93008;-40
2022/12/11 11:13:23;;;;;;;;;;;12.10;82.70;;;;;;5040820;28;92072;-41
2022/12/11 11:15:56;;;;;;;;;;;12.10;82.70;;;;;;5039760;27;93794;-40
2022/12/11 11:18:25;;;;;;;;;;;12.10;82.80;;;;;;5039730;28;93081;-40
2022/12/11 11:20:51;;;;;;;;;;;12.10;82.70;;;;;;5043656;28;92111;-40
2022/12/11 11:23:20;;;;;;;;;;;12.10;82.70;;;;;;5039847;28;93187;-40
2022/12/11 11:25:54;;;;;;;;;;;12.10;82.70;;;;;;5040256;28;92150;-40
2022/12/11 11:28:27;;;;;;;;;;;12.20;82.60;;;;;;5040393;27;93794;-40
2022/12/11 11:30:56;;;;;;;;;;;12.10;82.70;;;;;;5039241;28;94276;-40
2022/12/11 11:33:22;;;;;;;;;;;12.10;82.50;;;;;;5040923;28;91391;-40
2022/12/11 11:36:06;;;;;;;;;;;12.10;82.60;;;;;;5040253;28;92434;-40
2022/12/11 11:38:51;;;;;;;;;;;12.10;82.60;;;;;;5039404;28;95065;-40
2022/12/11 11:41:22;;;;;;;;;;;12.10;82.60;;;;;;5039178;28;93103;-40
2022/12/11 11:43:59;;;;;;;;;;;12.10;82.90;;;;;;5042394;27;92866;-40
2022/12/11 11:46:35;;;;;;;;;;;12.10;82.70;;;;;;5039809;28;92243;-40
2022/12/11 11:49:04;;;;;;;;;;;12.10;82.90;;;;;;5039937;28;93855;-40
2022/12/11 11:51:35;;;;;;;;;;;12.20;82.90;;;;;;5038486;27;94304;-40
2022/12/11 11:54:02;;;;;;;;;;;12.10;82.80;;;;;;5039951;28;92139;-41
2022/12/11 11:56:36;;;;;;;;;;;12.10;82.80;;;;;;5039843;28;92507;-40
2022/12/11 11:59:04;;;;;;;;;;;12.10;82.80;;;;;;5040087;28;93202;-40
2022/12/11 12:01:30;;;;;;;;;;;12.10;82.80;;;;;;5040066;28;92295;-40
2022/12/11 12:03:56;;;;;;;;;;;12.10;82.70;;;;;;5042142;27;93663;-40
2022/12/11 12:06:24;;;;;;;;;;;12.10;82.70;;;;;;5039042;28;93098;-40
2022/12/11 12:08:49;;;;;;;;;;;12.10;82.70;;;;;;5039906;28;93215;-40
2022/12/11 12:11:15;;;;;;;;;;;12.20;82.80;;;;;;5039215;28;93200;-40
2022/12/11 12:13:47;;;;;;;;;;;12.20;82.70;;;;;;5039907;28;92158;-40
2022/12/11 12:16:33;;;;;;;;;;;12.20;82.80;;;;;;5039736;28;92073;-40
2022/12/11 12:19:10;;;;;;;;;;;12.20;82.90;;;;;;5016111;28;94449;-40
2022/12/11 12:21:36;;;;;;;;;;;12.10;82.70;;;;;;5039884;28;92496;-40
2022/12/11 12:24:11;;;;;;;;;;;12.10;82.70;;;;;;5040083;28;92381;-40
2022/12/11 12:26:38;;;;;;;;;;;12.20;83.40;;;;;;5042130;28;93273;-40
2022/12/11 12:29:04;;;;;;;;;;;12.20;82.70;;;;;;5039407;27;92321;-40
2022/12/11 12:31:48;;;;;;;;;;;12.10;82.80;;;;;;5038279;28;93996;-40
2022/12/11 12:34:32;;;;;;;;;;;12.10;82.70;;;;;;5039426;27;92265;-40
2022/12/11 12:37:09;;;;;;;;;;;12.10;82.60;;;;;;5039632;27;92361;-40
2022/12/11 12:39:43;;;;;;;;;;;12.10;82.60;;;;;;5038811;28;93652;-40
2022/12/11 12:42:15;;;;;;;;;;;12.20;82.70;;;;;;5039297;28;92176;-40
2022/12/11 12:45:00;;;;;;;;;;;12.10;82.70;;;;;;5039049;28;92365;-40
2022/12/11 12:47:29;;;;;;;;;;;12.20;82.70;;;;;;5016566;28;93260;-40
2022/12/11 12:49:55;;;;;;;;;;;12.10;82.60;;;;;;5042881;28;91315;-40
2022/12/11 12:52:34;;;;;;;;;;;12.10;82.60;;;;;;5038461;28;93073;-40
2022/12/11 12:55:17;;;;;;;;;;;12.20;82.60;;;;;;5038978;28;92109;-40
2022/12/11 12:57:45;;;;;;;;;;;12.20;82.60;;;;;;5038382;28;93058;-40
2022/12/11 13:00:13;;;;;;;;;;;12.10;82.50;;;;;;5038485;28;92798;-40
2022/12/11 13:02:52;;;;;;;;;;;12.10;82.50;;;;;;5040038;27;92057;-40
2022/12/11 13:05:22;;;;;;;;;;;12.10;82.60;;;;;;5042639;27;93967;-40
2022/12/11 13:07:50;;;;;;;;;;;12.10;82.70;;;;;;5042097;28;93153;-40
2022/12/11 13:10:35;;;;;;;;;;;12.10;82.60;;;;;;5042401;28;92184;-40
2022/12/11 13:13:02;;;;;;;;;;;12.10;82.60;;;;;;5045312;28;92403;-40
2022/12/11 13:15:39;;;;;;;;;;;12.10;82.60;;;;;;5042845;28;91466;-40
2022/12/11 13:18:29;;;;;;;;;;;12.10;82.60;;;;;;5042502;27;92097;-40
2022/12/11 13:20:54;;;;;;;;;;;12.10;82.50;;;;;;5041944;28;92563;-40
2022/12/11 13:23:33;;;;;;;;;;;12.10;82.60;;;;;;5041721;28;93146;-40
2022/12/11 13:26:02;;;;;;;;;;;12.10;82.50;;;;;;5042124;27;94659;-40
2022/12/11 13:28:28;;;;;;;;;;;12.10;82.50;;;;;;5041592;28;94546;-40
2022/12/11 13:31:12;;;;;;;;;;;12.10;82.50;;;;;;5042313;28;92168;-40
2022/12/11 13:33:40;;;;;;;;;;;12.10;82.50;;;;;;5042514;27;92396;-40
2022/12/11 13:36:08;;;;;;;;;;;12.10;82.50;;;;;;5044666;28;93220;-40
2022/12/11 13:38:35;;;;;;;;;;;12.10;82.50;;;;;;5042036;28;92445;-41
2022/12/11 13:41:02;;;;;;;;;;;12.10;82.50;;;;;;5042013;28;92355;-40
2022/12/11 13:43:29;;;;;;;;;;;12.10;82.50;;;;;;5042119;28;92105;-40
2022/12/11 13:45:57;;;;;;;;;;;12.10;82.80;;;;;;5041520;27;92318;-40
2022/12/11 13:48:28;;;;;;;;;;;12.10;82.60;;;;;;5040674;28;94111;-40
2022/12/11 13:50:55;;;;;;;;;;;12.10;82.70;;;;;;5041548;28;92244;-40
2022/12/11 13:53:21;;;;;;;;;;;12.10;82.60;;;;;;5042014;27;92737;-40
2022/12/11 13:55:54;;;;;;;;;;;12.10;82.60;;;;;;5041434;28;92940;-40
2022/12/11 13:58:21;;;;;;;;;;;12.10;82.50;;;;;;5044880;28;92078;-40
2022/12/11 14:01:01;;;;;;;;;;;12.10;82.40;;;;;;5041259;28;92691;-40
2022/12/11 14:03:27;;;;;;;;;;;12.10;82.20;;;;;;5041229;28;92202;-40
2022/12/11 14:05:53;;;;;;;;;;;12.10;82.00;;;;;;5042000;28;93753;-40
2022/12/11 14:08:20;;;;;;;;;;;12.10;81.80;;;;;;5041298;28;93214;-40
2022/12/11 14:10:50;;;;;;;;;;;12.10;81.70;;;;;;5041544;28;92124;-40
2022/12/11 14:13:22;;;;;;;;;;;12.10;82.10;;;;;;5040933;27;92814;-40
2022/12/11 14:15:48;;;;;;;;;;;12.10;81.10;;;;;;5040235;28;94427;-40
2022/12/11 14:18:16;;;;;;;;;;;12.10;81.10;;;;;;5044485;28;92177;-41
2022/12/11 14:20:41;;;;;;;;;;;12.10;81.00;;;;;;5040794;28;92231;-40
2022/12/11 14:23:14;;;;;;;;;;;12.10;80.90;;;;;;5041564;28;92202;-41
2022/12/11 14:25:40;;;;;;;;;;;12.10;80.80;;;;;;5041624;28;92545;-41
2022/12/11 14:28:14;;;;;;;;;;;12.10;80.80;;;;;;5040968;28;93118;-41
2022/12/11 14:30:43;;;;;;;;;;;12.10;80.80;;;;;;5041502;28;91241;-41